Alba, Michigan
Current Conditions -  °F | °C
As of 11:18 PM on Wednesday 22 Oct 2014 (Local Time) from KACB Reporting Station
Haze Haze  
Wind Chill: 31°   Ceiling: 200
Heat Index: 31°   Visibility: 4mi
Dew Point: 30°   Wind: 0mph
Humidity: 96%   Direction: NA
Pressure: 30.3"   Gusts: NA
Location:  44.97°N, 84.97°W
Report Text: KACB 230318Z AUTO 00000KT 4SM BR BKN002 M01/M01 A3030 RMK AO2 T10061012
Loading
Personal Weather Stations






























Interactive Weather Map New forecast layout! Learn more

10-Day Weather Forecast

Advertisements
Track Severe Weather on mobile